createdAt,value
2023-01-23T00:00:15.729Z,90.24
2023-01-23T00:01:15.657Z,90.24
2023-01-23T00:02:15.811Z,90.14
2023-01-23T00:03:15.650Z,90.34
2023-01-23T00:04:15.734Z,90.70
2023-01-23T00:05:15.602Z,90.81
2023-01-23T00:06:15.790Z,90.87
2023-01-23T00:07:15.635Z,90.87
2023-01-23T00:08:15.615Z,90.77
2023-01-23T00:09:15.609Z,90.56
2023-01-23T00:10:15.856Z,90.66
2023-01-23T00:11:15.513Z,90.87
2023-01-23T00:12:15.710Z,90.97
2023-01-23T00:13:15.496Z,90.56
2023-01-23T00:14:15.668Z,90.14
2023-01-23T00:15:15.488Z,90.24
2023-01-23T00:16:15.543Z,90.66
2023-01-23T00:17:15.542Z,90.62
2023-01-23T00:18:15.651Z,90.20
2023-01-23T00:19:15.466Z,90.09
2023-01-23T00:20:15.443Z,90.09
2023-01-23T00:21:15.440Z,89.99
2023-01-23T00:22:15.469Z,89.89
2023-01-23T00:23:15.407Z,89.89
2023-01-23T00:24:16.609Z,89.78
2023-01-23T00:25:15.389Z,89.58
2023-01-23T00:26:15.415Z,89.68
2023-01-23T00:27:15.306Z,89.78
2023-01-23T00:28:15.398Z,89.89
2023-01-23T00:29:15.292Z,89.47
2023-01-23T00:30:15.338Z,89.78
2023-01-23T00:31:15.433Z,89.68
2023-01-23T00:32:15.306Z,89.68
2023-01-23T00:33:15.252Z,89.89
2023-01-23T00:34:15.252Z,89.99
2023-01-23T00:35:15.219Z,89.89
2023-01-23T00:36:15.256Z,89.89
2023-01-23T00:37:15.184Z,89.36
2023-01-23T00:38:15.311Z,89.26
2023-01-23T00:39:15.151Z,89.47
2023-01-23T00:40:15.260Z,90.09
2023-01-23T00:41:15.180Z,90.20
2023-01-23T00:42:15.328Z,89.78
2023-01-23T00:43:15.113Z,89.58
2023-01-23T00:44:15.340Z,89.47
2023-01-23T00:45:15.219Z,89.78
2023-01-23T00:46:15.056Z,89.89
2023-01-23T00:47:15.188Z,89.47
2023-01-23T00:48:15.051Z,89.68
2023-01-23T00:49:15.246Z,89.99
2023-01-23T00:50:15.137Z,90.31
2023-01-23T00:51:15.124Z,90.41
2023-01-23T00:52:15.157Z,89.89
2023-01-23T00:53:14.979Z,89.36
2023-01-23T00:54:15.008Z,89.05
2023-01-23T00:55:15.049Z,89.26
2023-01-23T00:56:14.935Z,88.80
2023-01-23T00:57:14.996Z,88.49
2023-01-23T00:58:14.928Z,89.01
2023-01-23T00:59:15.167Z,88.80
2023-01-23T01:00:14.863Z,88.70
2023-01-23T01:01:15.041Z,88.80
2023-01-23T01:02:14.839Z,88.49
2023-01-23T01:03:14.946Z,88.39
2023-01-23T01:04:14.837Z,88.70
2023-01-23T01:05:15.000Z,88.80
2023-01-23T01:06:14.790Z,88.28
2023-01-23T01:07:14.877Z,88.07
2023-01-23T01:08:14.778Z,88.07
2023-01-23T01:09:15.031Z,88.07
2023-01-23T01:10:14.786Z,87.65
2023-01-23T01:11:14.994Z,87.45
2023-01-23T01:12:14.713Z,87.76
2023-01-23T01:13:14.803Z,88.39
2023-01-23T01:14:14.725Z,88.17
2023-01-23T01:15:14.966Z,87.65
2023-01-23T01:16:14.786Z,87.76
2023-01-23T01:17:14.680Z,88.17
2023-01-23T01:18:14.815Z,88.07
2023-01-23T01:19:14.661Z,88.28
2023-01-23T01:20:14.851Z,88.49
2023-01-23T01:21:14.706Z,88.39
2023-01-23T01:22:14.598Z,88.49
2023-01-23T01:23:14.770Z,88.49
2023-01-23T01:24:14.573Z,88.39
2023-01-23T01:25:15.808Z,88.70
2023-01-23T01:26:14.547Z,88.59
2023-01-23T01:27:14.639Z,88.80
2023-01-23T01:28:14.521Z,88.59
2023-01-23T01:29:14.616Z,88.49
2023-01-23T01:30:14.507Z,88.39
2023-01-23T01:31:14.759Z,88.17
2023-01-23T01:32:14.513Z,87.96
2023-01-23T01:33:14.647Z,87.65
2023-01-23T01:34:14.449Z,87.96
2023-01-23T01:35:14.559Z,88.17
2023-01-23T01:36:14.441Z,88.49
2023-01-23T01:37:14.573Z,88.07
2023-01-23T01:38:14.431Z,87.34
2023-01-23T01:39:14.570Z,87.13
2023-01-23T01:40:14.379Z,87.13
2023-01-23T01:41:14.603Z,87.45
2023-01-23T01:42:14.340Z,87.65
2023-01-23T01:43:14.547Z,86.92
2023-01-23T01:44:14.306Z,87.34
2023-01-23T01:45:14.516Z,87.45
2023-01-23T01:46:14.360Z,87.76
2023-01-23T01:47:14.428Z,87.96
2023-01-23T01:48:14.262Z,87.55
2023-01-23T01:49:14.401Z,87.96
2023-01-23T01:50:14.245Z,87.96
2023-01-23T01:51:14.618Z,87.76
2023-01-23T01:52:14.219Z,88.07
2023-01-23T01:53:14.375Z,87.86
2023-01-23T01:54:14.239Z,87.45
2023-01-23T01:55:14.385Z,86.92
2023-01-23T01:56:14.168Z,87.76
2023-01-23T01:57:14.284Z,87.96
2023-01-23T01:58:14.148Z,88.07
2023-01-23T01:59:14.304Z,88.21
2023-01-23T02:00:14.138Z,88.39
2023-01-23T02:01:14.338Z,88.21
2023-01-23T02:02:14.129Z,88.49
2023-01-23T02:03:14.342Z,88.17
2023-01-23T02:04:14.085Z,87.80
2023-01-23T02:05:14.302Z,88.42
2023-01-23T02:06:14.105Z,89.05
2023-01-23T02:07:15.290Z,88.64
2023-01-23T02:08:14.290Z,88.21
2023-01-23T02:09:14.030Z,88.42
2023-01-23T02:10:14.164Z,88.32
2023-01-23T02:11:14.027Z,88.42
2023-01-23T02:12:14.069Z,88.84
2023-01-23T02:13:14.106Z,88.95
2023-01-23T02:14:13.925Z,88.59
2023-01-23T02:15:14.020Z,88.17
2023-01-23T02:16:13.995Z,88.11
2023-01-23T02:17:14.161Z,88.53
2023-01-23T02:18:14.117Z,88.53
2023-01-23T02:19:13.908Z,88.64
2023-01-23T02:20:13.924Z,88.42
2023-01-23T02:21:13.945Z,88.01
2023-01-23T02:22:14.007Z,88.01
2023-01-23T02:23:13.849Z,88.42
2023-01-23T02:24:13.851Z,88.42
2023-01-23T02:25:13.816Z,88.42
2023-01-23T02:26:13.862Z,88.74
2023-01-23T02:27:13.807Z,89.05
2023-01-23T02:28:13.924Z,88.74
2023-01-23T02:29:13.789Z,88.57
2023-01-23T02:30:14.919Z,88.46
2023-01-23T02:31:13.889Z,88.67
2023-01-23T02:32:13.917Z,88.78
2023-01-23T02:33:13.760Z,89.13
2023-01-23T02:34:13.840Z,89.76
2023-01-23T02:35:13.751Z,89.97
2023-01-23T02:36:13.737Z,90.03
2023-01-23T02:37:13.695Z,89.83
2023-01-23T02:38:13.841Z,89.61
2023-01-23T02:39:13.783Z,89.72
2023-01-23T02:40:13.641Z,90.03
2023-01-23T02:41:13.685Z,90.14
2023-01-23T02:42:13.581Z,90.14
2023-01-23T02:43:13.745Z,89.68
2023-01-23T02:44:13.687Z,89.15
2023-01-23T02:45:13.579Z,88.57
2023-01-23T02:46:13.613Z,88.78
2023-01-23T02:47:13.549Z,89.30
2023-01-23T02:48:13.660Z,89.30
2023-01-23T02:49:13.524Z,89.09
2023-01-23T02:50:13.551Z,88.78
2023-01-23T02:51:13.486Z,88.67
2023-01-23T02:52:13.548Z,88.57
2023-01-23T02:53:13.472Z,88.88
2023-01-23T02:54:13.707Z,88.99
2023-01-23T02:55:13.475Z,88.99
2023-01-23T02:56:13.464Z,89.09
2023-01-23T02:57:13.390Z,89.34
2023-01-23T02:58:13.586Z,89.76
2023-01-23T02:59:13.377Z,90.14
2023-01-23T03:00:13.756Z,89.72
2023-01-23T03:01:13.408Z,89.51
2023-01-23T03:02:13.586Z,88.99
2023-01-23T03:03:13.367Z,88.99
2023-01-23T03:04:13.540Z,89.51
2023-01-23T03:05:13.451Z,89.40
2023-01-23T03:06:13.314Z,89.20
2023-01-23T03:07:13.330Z,89.09
2023-01-23T03:08:13.309Z,89.09
2023-01-23T03:09:13.452Z,89.30
2023-01-23T03:10:13.399Z,89.72
2023-01-23T03:11:13.263Z,89.72
2023-01-23T03:12:13.395Z,88.88
2023-01-23T03:13:13.191Z,88.67
2023-01-23T03:14:13.316Z,89.13
2023-01-23T03:15:13.297Z,89.51
2023-01-23T03:16:13.248Z,89.93
2023-01-23T03:17:13.347Z,90.24
2023-01-23T03:18:13.155Z,89.83
2023-01-23T03:19:13.203Z,89.58
2023-01-23T03:20:13.136Z,88.88
2023-01-23T03:21:13.237Z,88.36
2023-01-23T03:22:13.123Z,88.15
2023-01-23T03:23:13.240Z,88.46
2023-01-23T03:24:13.088Z,88.67
2023-01-23T03:25:13.254Z,89.09
2023-01-23T03:26:13.136Z,89.03
2023-01-23T03:27:13.273Z,89.65
2023-01-23T03:28:13.036Z,90.18
2023-01-23T03:29:13.198Z,90.45
2023-01-23T03:30:13.003Z,89.83
2023-01-23T03:31:13.271Z,89.20
2023-01-23T03:32:13.023Z,88.99
2023-01-23T03:33:13.171Z,88.99
2023-01-23T03:34:12.947Z,88.78
2023-01-23T03:35:13.129Z,88.92
2023-01-23T03:36:13.174Z,89.03
2023-01-23T03:37:13.074Z,89.23
2023-01-23T03:38:12.912Z,89.65
2023-01-23T03:39:12.975Z,90.08
2023-01-23T03:40:12.872Z,90.18
2023-01-23T03:41:12.962Z,90.59
2023-01-23T03:42:12.875Z,90.18
2023-01-23T03:43:13.011Z,89.97
2023-01-23T03:44:12.819Z,89.97
2023-01-23T03:45:12.979Z,90.49
2023-01-23T03:46:12.799Z,90.39
2023-01-23T03:47:12.900Z,89.86
2023-01-23T03:48:12.786Z,89.86
2023-01-23T03:49:12.945Z,89.86
2023-01-23T03:50:12.801Z,89.97
2023-01-23T03:51:12.997Z,89.97
2023-01-23T03:52:12.734Z,89.86
2023-01-23T03:53:13.867Z,89.61
2023-01-23T03:54:12.731Z,89.93
2023-01-23T03:55:12.765Z,89.83
2023-01-23T03:56:12.675Z,89.61
2023-01-23T03:57:12.754Z,89.72
2023-01-23T03:58:12.693Z,89.51
2023-01-23T03:59:12.778Z,89.72
2023-01-23T04:00:12.648Z,89.83
2023-01-23T04:01:12.898Z,89.20
2023-01-23T04:02:12.828Z,88.78
2023-01-23T04:03:12.572Z,88.88
2023-01-23T04:04:12.833Z,88.99
2023-01-23T04:05:12.574Z,88.78
2023-01-23T04:06:12.870Z,89.30
2023-01-23T04:07:12.725Z,88.99
2023-01-23T04:08:12.534Z,88.88
2023-01-23T04:09:12.753Z,89.20
2023-01-23T04:10:13.326Z,89.26
2023-01-23T04:11:12.552Z,89.15
2023-01-23T04:12:13.593Z,88.95
2023-01-23T04:13:12.437Z,88.95
2023-01-23T04:14:12.648Z,88.84
2023-01-23T04:15:12.414Z,88.11
2023-01-23T04:16:12.642Z,87.80
2023-01-23T04:17:12.408Z,88.32
2023-01-23T04:18:12.583Z,88.84
2023-01-23T04:19:12.372Z,88.95
2023-01-23T04:20:12.544Z,88.84
2023-01-23T04:21:12.371Z,88.53
2023-01-23T04:22:12.533Z,88.21
2023-01-23T04:23:12.338Z,88.11
2023-01-23T04:24:12.556Z,88.21
2023-01-23T04:25:12.304Z,88.26
2023-01-23T04:26:12.374Z,88.99
2023-01-23T04:27:12.276Z,89.05
2023-01-23T04:28:12.410Z,88.74
2023-01-23T04:29:12.338Z,88.42
2023-01-23T04:30:12.546Z,88.42
2023-01-23T04:31:12.359Z,88.64
2023-01-23T04:32:12.312Z,88.84
2023-01-23T04:33:12.356Z,88.84
2023-01-23T04:34:12.255Z,89.05
2023-01-23T04:35:12.301Z,88.95
2023-01-23T04:36:12.175Z,88.53
2023-01-23T04:37:12.328Z,88.74
2023-01-23T04:38:12.397Z,88.84
2023-01-23T04:39:12.149Z,88.84
2023-01-23T04:40:12.361Z,88.11
2023-01-23T04:41:12.097Z,87.69
2023-01-23T04:42:12.276Z,87.59
2023-01-23T04:43:12.139Z,88.53
2023-01-23T04:44:12.101Z,88.64
2023-01-23T04:45:12.179Z,89.05
2023-01-23T04:46:12.075Z,88.53
2023-01-23T04:47:12.104Z,88.21
2023-01-23T04:48:12.034Z,88.11
2023-01-23T04:49:12.165Z,88.42
2023-01-23T04:50:12.055Z,88.32
2023-01-23T04:51:12.059Z,88.36
2023-01-23T04:52:11.978Z,88.57
2023-01-23T04:53:12.040Z,88.78
2023-01-23T04:54:11.966Z,88.78
2023-01-23T04:55:12.182Z,88.46
2023-01-23T04:56:11.945Z,89.03
2023-01-23T04:57:11.948Z,89.55
2023-01-23T04:58:11.899Z,89.55
2023-01-23T04:59:12.076Z,89.45
2023-01-23T05:00:11.905Z,89.65
2023-01-23T05:01:12.042Z,89.83
2023-01-23T05:02:11.879Z,89.72
2023-01-23T05:03:11.997Z,89.34
2023-01-23T05:04:12.039Z,89.45
2023-01-23T05:05:11.811Z,89.55
2023-01-23T05:06:11.941Z,89.55
2023-01-23T05:07:11.747Z,89.72
2023-01-23T05:08:11.836Z,89.51
2023-01-23T05:09:11.833Z,89.61
2023-01-23T05:10:11.769Z,89.72
2023-01-23T05:11:12.011Z,89.30
2023-01-23T05:12:11.738Z,89.30
2023-01-23T05:13:11.817Z,89.30
2023-01-23T05:14:11.678Z,89.51
2023-01-23T05:15:11.792Z,89.72
2023-01-23T05:16:11.808Z,88.88
2023-01-23T05:17:11.836Z,88.99
2023-01-23T05:18:11.662Z,88.88
2023-01-23T05:19:11.697Z,88.78
2023-01-23T05:20:11.660Z,88.99
2023-01-23T05:21:11.836Z,89.20
2023-01-23T05:22:11.604Z,88.88
2023-01-23T05:23:12.790Z,89.09
2023-01-23T05:24:11.568Z,88.99
2023-01-23T05:25:11.747Z,89.30
2023-01-23T05:26:11.558Z,89.09
2023-01-23T05:27:11.657Z,88.67
2023-01-23T05:28:11.821Z,88.67
2023-01-23T05:29:13.622Z,89.20
2023-01-23T05:30:32.709Z,89.20
2023-01-23T05:31:11.623Z,89.23
2023-01-23T05:32:11.693Z,89.55
2023-01-23T05:33:11.493Z,89.55
2023-01-23T05:34:11.492Z,89.55
2023-01-23T05:35:11.521Z,89.34
2023-01-23T05:36:11.396Z,89.13
2023-01-23T05:37:13.596Z,89.03
2023-01-23T05:38:11.386Z,89.23
2023-01-23T05:39:11.599Z,89.45
2023-01-23T05:40:11.581Z,89.65
2023-01-23T05:41:11.393Z,90.08
2023-01-23T05:42:12.577Z,90.18
2023-01-23T05:43:11.367Z,90.18
2023-01-23T05:44:11.373Z,90.28
2023-01-23T05:45:11.303Z,90.59
2023-01-23T05:46:11.395Z,90.59
2023-01-23T05:47:11.278Z,90.70
2023-01-23T05:48:11.411Z,90.39
2023-01-23T05:49:11.315Z,90.39
2023-01-23T05:50:11.462Z,90.39
2023-01-23T05:51:11.423Z,90.08
2023-01-23T05:52:11.312Z,90.08
2023-01-23T05:53:11.208Z,90.28
2023-01-23T05:54:11.324Z,90.70
2023-01-23T05:55:11.191Z,90.28
2023-01-23T05:56:11.426Z,90.28
2023-01-23T05:57:11.176Z,90.49
2023-01-23T05:58:11.373Z,90.18
2023-01-23T05:59:11.140Z,89.76
2023-01-23T06:00:11.213Z,89.55
2023-01-23T06:01:11.119Z,89.76
2023-01-23T06:02:11.347Z,90.08
2023-01-23T06:03:11.089Z,89.97
2023-01-23T06:04:11.297Z,90.39
2023-01-23T06:05:11.057Z,90.24
2023-01-23T06:06:11.259Z,90.24
2023-01-23T06:07:11.041Z,89.93
2023-01-23T06:08:11.116Z,89.72
2023-01-23T06:09:11.014Z,89.40
2023-01-23T06:10:11.148Z,89.72
2023-01-23T06:11:11.027Z,89.40
2023-01-23T06:12:11.051Z,89.72
2023-01-23T06:13:10.983Z,89.68
2023-01-23T06:14:11.162Z,89.36
2023-01-23T06:15:11.098Z,89.26
2023-01-23T06:16:11.127Z,89.26
2023-01-23T06:17:10.936Z,89.36
2023-01-23T06:18:11.326Z,89.05
2023-01-23T06:19:10.882Z,88.53
2023-01-23T06:20:11.030Z,88.21
2023-01-23T06:21:10.851Z,88.42
2023-01-23T06:22:10.973Z,88.74
2023-01-23T06:23:10.821Z,88.74
2023-01-23T06:24:10.949Z,88.64
2023-01-23T06:25:10.820Z,88.95
2023-01-23T06:26:10.942Z,88.53
2023-01-23T06:27:11.047Z,88.21
2023-01-23T06:28:10.747Z,88.32
2023-01-23T06:29:10.992Z,88.21
2023-01-23T06:30:10.763Z,88.42
2023-01-23T06:31:11.176Z,88.64
2023-01-23T06:32:10.858Z,88.95
2023-01-23T06:33:10.740Z,89.47
2023-01-23T06:34:10.827Z,88.95
2023-01-23T06:35:10.804Z,88.84
2023-01-23T06:36:11.478Z,88.74
2023-01-23T06:37:10.866Z,87.90
2023-01-23T06:38:10.670Z,88.01
2023-01-23T06:39:10.862Z,88.64
2023-01-23T06:40:10.627Z,88.95
2023-01-23T06:41:10.949Z,88.53
2023-01-23T06:42:10.568Z,88.53
2023-01-23T06:43:10.830Z,88.53
2023-01-23T06:44:10.583Z,88.21
2023-01-23T06:45:10.856Z,88.21
2023-01-23T06:46:10.624Z,88.21
2023-01-23T06:47:10.720Z,88.11
2023-01-23T06:48:10.532Z,88.42
2023-01-23T06:49:10.691Z,88.84
2023-01-23T06:50:10.503Z,89.26
2023-01-23T06:51:10.755Z,88.95
2023-01-23T06:52:10.440Z,89.26
2023-01-23T06:53:10.700Z,89.26
2023-01-23T06:54:10.623Z,89.05
2023-01-23T06:55:10.687Z,88.64
2023-01-23T06:56:10.440Z,88.74
2023-01-23T06:57:10.662Z,89.05
2023-01-23T06:58:10.563Z,89.26
2023-01-23T06:59:10.669Z,88.95
2023-01-23T07:00:16.649Z,88.95
2023-01-23T07:01:10.782Z,88.95
2023-01-23T07:02:10.671Z,88.74
2023-01-23T07:03:10.729Z,88.95
2023-01-23T07:04:10.370Z,89.47
2023-01-23T07:05:11.082Z,89.36
2023-01-23T07:06:10.300Z,88.95
2023-01-23T07:07:10.451Z,89.15
2023-01-23T07:08:10.262Z,88.95
2023-01-23T07:09:10.451Z,88.74
2023-01-23T07:10:10.237Z,88.80
2023-01-23T07:11:10.469Z,88.49
2023-01-23T07:12:10.219Z,88.39
2023-01-23T07:13:10.285Z,88.74
2023-01-23T07:14:10.218Z,88.21
2023-01-23T07:15:10.292Z,88.32
2023-01-23T07:16:10.438Z,88.53
2023-01-23T07:17:10.331Z,88.53
2023-01-23T07:18:10.197Z,88.01
2023-01-23T07:19:10.297Z,88.01
2023-01-23T07:20:10.158Z,88.53
2023-01-23T07:21:10.379Z,89.36
2023-01-23T07:22:10.153Z,89.58
2023-01-23T07:23:10.224Z,89.47
2023-01-23T07:24:10.126Z,89.05
2023-01-23T07:25:10.362Z,88.84
2023-01-23T07:26:10.102Z,89.15
2023-01-23T07:27:10.158Z,89.05
2023-01-23T07:28:10.015Z,88.90
2023-01-23T07:29:10.105Z,88.70
2023-01-23T07:30:09.977Z,88.59
2023-01-23T07:31:10.208Z,88.49
2023-01-23T07:32:11.169Z,88.28
2023-01-23T07:33:10.157Z,88.39
2023-01-23T07:34:09.972Z,87.96
2023-01-23T07:35:09.927Z,87.96
2023-01-23T07:36:10.193Z,87.55
2023-01-23T07:37:09.883Z,87.76
2023-01-23T07:38:10.167Z,87.86
2023-01-23T07:39:09.872Z,87.76
2023-01-23T07:40:10.023Z,87.55
2023-01-23T07:41:10.110Z,87.65
2023-01-23T07:42:10.397Z,86.71
2023-01-23T07:43:09.885Z,87.07
2023-01-23T07:44:10.038Z,87.55
2023-01-23T07:45:10.280Z,87.96
2023-01-23T07:46:10.131Z,88.28
2023-01-23T07:47:09.749Z,87.86
2023-01-23T07:48:10.144Z,87.86
2023-01-23T07:49:09.716Z,87.65
2023-01-23T07:50:09.893Z,87.65
2023-01-23T07:51:09.776Z,87.55
2023-01-23T07:52:09.829Z,87.55
2023-01-23T07:53:10.288Z,87.76
2023-01-23T07:54:09.882Z,87.34
2023-01-23T07:55:10.573Z,87.13
2023-01-23T07:56:10.269Z,87.02
2023-01-23T07:57:10.201Z,87.23
2023-01-23T07:58:09.930Z,86.71
2023-01-23T07:59:10.121Z,86.51
2023-01-23T08:00:09.880Z,86.71
2023-01-23T08:01:10.391Z,87.23
2023-01-23T08:02:10.040Z,87.38
2023-01-23T08:03:10.097Z,87.27
2023-01-23T08:04:10.423Z,86.96
2023-01-23T08:05:10.055Z,87.07
2023-01-23T08:06:10.119Z,87.17
2023-01-23T08:07:10.010Z,87.69
2023-01-23T08:08:14.002Z,87.48
2023-01-23T08:09:09.512Z,87.69
2023-01-23T08:10:09.761Z,88.01
2023-01-23T08:11:09.560Z,87.02
2023-01-23T08:12:09.675Z,87.34
2023-01-23T08:13:09.437Z,87.34
2023-01-23T08:14:09.566Z,86.82
2023-01-23T08:15:09.427Z,86.51
2023-01-23T08:16:11.446Z,86.51
2023-01-23T08:17:09.449Z,86.82
2023-01-23T08:18:10.889Z,87.13
2023-01-23T08:19:09.420Z,86.40
2023-01-23T08:20:09.757Z,85.56
2023-01-23T08:21:09.608Z,85.98
2023-01-23T08:22:09.425Z,86.51
2023-01-23T08:23:09.636Z,86.51
2023-01-23T08:24:09.386Z,86.51
2023-01-23T08:25:10.702Z,86.36
2023-01-23T08:26:09.335Z,84.79
2023-01-23T08:27:14.324Z,85.00
2023-01-23T08:28:09.279Z,85.63
2023-01-23T08:29:09.440Z,85.31
2023-01-23T08:30:09.275Z,84.27
2023-01-23T08:31:09.394Z,83.95
2023-01-23T08:32:09.435Z,85.00
2023-01-23T08:33:09.551Z,84.89
2023-01-23T08:34:09.312Z,84.06
2023-01-23T08:35:09.644Z,83.64
2023-01-23T08:36:11.261Z,84.20
2023-01-23T08:37:09.383Z,83.95
2023-01-23T08:38:09.171Z,83.26
2023-01-23T08:39:09.231Z,83.47
2023-01-23T08:40:09.219Z,84.31
2023-01-23T08:41:09.336Z,85.31
2023-01-23T08:42:09.163Z,84.89
2023-01-23T08:43:09.198Z,83.01
2023-01-23T08:44:09.055Z,83.33
2023-01-23T08:45:09.138Z,83.85
2023-01-23T08:46:09.097Z,84.06
2023-01-23T08:47:09.180Z,84.69
2023-01-23T08:48:09.104Z,84.79
2023-01-23T08:49:11.181Z,83.40
2023-01-23T08:50:09.196Z,82.77
2023-01-23T08:51:09.215Z,83.71
2023-01-23T08:52:09.004Z,83.81
2023-01-23T08:53:08.961Z,83.50
2023-01-23T08:54:08.993Z,83.29
2023-01-23T08:55:08.997Z,81.73
2023-01-23T08:56:08.930Z,81.41
2023-01-23T08:57:10.080Z,82.04
2023-01-23T08:58:08.886Z,83.40
2023-01-23T08:59:09.200Z,83.40
2023-01-23T09:00:08.859Z,82.25
2023-01-23T09:01:09.121Z,81.62
2023-01-23T09:02:08.979Z,81.62
2023-01-23T09:03:11.121Z,81.93
2023-01-23T09:04:09.014Z,83.18
2023-01-23T09:05:08.828Z,82.87
2023-01-23T09:06:08.915Z,82.87
2023-01-23T09:07:08.777Z,82.46
2023-01-23T09:08:08.927Z,82.25
2023-01-23T09:09:08.710Z,82.35
2023-01-23T09:10:08.945Z,82.29
2023-01-23T09:11:08.751Z,83.23
2023-01-23T09:12:08.992Z,83.44
2023-01-23T09:13:08.689Z,83.81
2023-01-23T09:14:08.994Z,83.40
2023-01-23T09:15:08.641Z,83.71
2023-01-23T09:16:08.978Z,83.50
2023-01-23T09:17:08.633Z,83.71
2023-01-23T09:18:08.836Z,83.61
2023-01-23T09:19:08.969Z,83.81
2023-01-23T09:20:08.889Z,83.47
2023-01-23T09:21:08.987Z,83.15
2023-01-23T09:22:08.847Z,83.47
2023-01-23T09:23:08.837Z,83.25
2023-01-23T09:24:08.767Z,83.36
2023-01-23T09:25:08.784Z,82.94
2023-01-23T09:26:08.609Z,83.15
2023-01-23T09:27:08.789Z,83.04
2023-01-23T09:28:08.685Z,82.63
2023-01-23T09:29:08.640Z,82.42
2023-01-23T09:30:08.595Z,82.94
2023-01-23T09:31:08.460Z,83.04
2023-01-23T09:32:08.604Z,82.73
2023-01-23T09:33:08.548Z,83.25
2023-01-23T09:34:08.727Z,83.61
2023-01-23T09:35:08.468Z,83.98
2023-01-23T09:36:08.504Z,83.92
2023-01-23T09:37:08.399Z,84.30
2023-01-23T09:38:08.722Z,84.50
2023-01-23T09:39:08.335Z,84.19
2023-01-23T09:40:08.810Z,83.50
2023-01-23T09:41:08.606Z,83.78
2023-01-23T09:42:08.610Z,84.09
2023-01-23T09:43:08.341Z,83.88
2023-01-23T09:44:08.394Z,83.67
2023-01-23T09:45:08.337Z,83.88
2023-01-23T09:46:08.599Z,83.88
2023-01-23T09:47:08.431Z,83.78
2023-01-23T09:48:08.683Z,83.67
2023-01-23T09:49:08.306Z,83.78
2023-01-23T09:50:08.324Z,83.88
2023-01-23T09:51:08.379Z,83.47
2023-01-23T09:52:08.430Z,83.88
2023-01-23T09:53:08.340Z,83.98
2023-01-23T09:54:08.335Z,84.30
2023-01-23T09:55:08.256Z,83.57
2023-01-23T09:56:08.307Z,82.94
2023-01-23T09:57:08.122Z,83.15
2023-01-23T09:58:08.444Z,83.36
2023-01-23T09:59:08.414Z,83.25
2023-01-23T10:00:08.163Z,83.25
2023-01-23T10:01:08.348Z,83.15
2023-01-23T10:02:08.142Z,83.36
2023-01-23T10:03:08.321Z,83.04
2023-01-23T10:04:08.289Z,83.53
2023-01-23T10:05:08.929Z,83.42
2023-01-23T10:06:08.266Z,82.80
2023-01-23T10:07:08.055Z,82.07
2023-01-23T10:08:08.518Z,81.55
2023-01-23T10:09:08.207Z,82.70
2023-01-23T10:10:08.284Z,82.24
2023-01-23T10:11:08.354Z,82.24
2023-01-23T10:12:08.243Z,81.82
2023-01-23T10:13:08.470Z,81.51
2023-01-23T10:14:08.800Z,80.85
2023-01-23T10:15:08.204Z,80.74
2023-01-23T10:16:08.421Z,81.05
2023-01-23T10:17:08.237Z,81.37
2023-01-23T10:18:08.781Z,80.08
2023-01-23T10:19:08.209Z,79.56
2023-01-23T10:20:08.400Z,80.64
2023-01-23T10:21:08.917Z,80.50
2023-01-23T10:22:08.970Z,80.64
2023-01-23T10:23:08.431Z,79.60
2023-01-23T10:24:08.274Z,79.91
2023-01-23T10:25:08.288Z,80.02
2023-01-23T10:26:07.996Z,80.54
2023-01-23T10:27:08.332Z,79.70
2023-01-23T10:28:10.650Z,80.02
2023-01-23T10:29:08.160Z,80.95
2023-01-23T10:30:08.178Z,79.63
2023-01-23T10:31:07.913Z,79.53
2023-01-23T10:32:07.785Z,79.22
2023-01-23T10:33:07.778Z,80.16
2023-01-23T10:34:08.147Z,80.68
2023-01-23T10:35:07.822Z,80.47
2023-01-23T10:36:07.689Z,79.94
2023-01-23T10:37:07.926Z,80.16
2023-01-23T10:38:07.615Z,80.57
2023-01-23T10:39:07.792Z,80.57
2023-01-23T10:40:07.626Z,81.26
2023-01-23T10:41:07.771Z,80.26
2023-01-23T10:42:07.635Z,80.16
2023-01-23T10:43:07.813Z,79.63
2023-01-23T10:44:07.672Z,79.84
2023-01-23T10:45:07.836Z,80.47
2023-01-23T10:46:07.636Z,80.47
2023-01-23T10:47:07.754Z,79.53
2023-01-23T10:48:12.161Z,79.53
2023-01-23T10:49:07.685Z,78.80
2023-01-23T10:50:08.114Z,79.74
2023-01-23T10:51:07.747Z,78.49
2023-01-23T10:52:07.930Z,77.34
2023-01-23T10:53:07.659Z,78.69
2023-01-23T10:54:08.474Z,80.05
2023-01-23T10:55:07.459Z,77.97
2023-01-23T10:56:07.596Z,78.17
2023-01-23T10:57:07.727Z,79.32
2023-01-23T10:58:08.163Z,79.01
2023-01-23T10:59:07.556Z,79.74
2023-01-23T11:00:08.018Z,78.21
2023-01-23T11:01:07.930Z,77.90
2023-01-23T11:02:07.974Z,78.42
2023-01-23T11:03:07.865Z,78.42
2023-01-23T11:04:07.778Z,79.15
2023-01-23T11:05:08.198Z,79.57
2023-01-23T11:06:08.008Z,79.36
2023-01-23T11:07:07.755Z,79.25
2023-01-23T11:08:07.686Z,80.09
2023-01-23T11:09:07.459Z,80.30
2023-01-23T11:10:07.643Z,79.67
2023-01-23T11:11:07.205Z,78.52
2023-01-23T11:12:07.484Z,79.01
2023-01-23T11:13:07.155Z,78.07
2023-01-23T11:14:07.405Z,77.58
2023-01-23T11:15:07.153Z,78.83
2023-01-23T11:16:07.299Z,79.05
2023-01-23T11:17:07.114Z,80.16
2023-01-23T11:18:07.221Z,79.01
2023-01-23T11:19:07.204Z,77.37
2023-01-23T11:20:07.348Z,78.73
2023-01-23T11:21:07.053Z,79.15
2023-01-23T11:22:07.320Z,79.57
2023-01-23T11:23:07.067Z,77.90
2023-01-23T11:24:07.130Z,78.35
2023-01-23T11:25:07.000Z,78.35
2023-01-23T11:26:07.044Z,78.87
2023-01-23T11:27:07.118Z,80.23
2023-01-23T11:28:06.969Z,78.97
2023-01-23T11:29:08.740Z,79.91
2023-01-23T11:30:07.014Z,78.97
2023-01-23T11:31:14.767Z,79.81
2023-01-23T11:32:07.228Z,80.09
2023-01-23T11:33:06.957Z,79.57
2023-01-23T11:34:07.111Z,79.88
2023-01-23T11:35:08.637Z,79.05
2023-01-23T11:36:06.903Z,78.52
2023-01-23T11:37:06.859Z,78.52
2023-01-23T11:38:06.977Z,79.77
2023-01-23T11:39:07.264Z,80.30
2023-01-23T11:40:06.994Z,79.46
2023-01-23T11:41:06.892Z,79.67
2023-01-23T11:42:06.965Z,78.73
2023-01-23T11:43:06.821Z,79.46
2023-01-23T11:44:07.870Z,79.36
2023-01-23T11:45:06.774Z,79.46
2023-01-23T11:46:06.843Z,79.36
2023-01-23T11:47:06.743Z,79.05
2023-01-23T11:48:06.779Z,79.15
2023-01-23T11:49:06.781Z,79.67
2023-01-23T11:50:06.762Z,80.09
2023-01-23T11:51:06.766Z,80.92
2023-01-23T11:52:06.747Z,80.57
2023-01-23T11:53:06.748Z,79.11
2023-01-23T11:54:06.743Z,79.74
2023-01-23T11:55:06.799Z,78.91
2023-01-23T11:56:06.614Z,78.28
2023-01-23T11:57:06.768Z,79.15
2023-01-23T11:58:06.724Z,79.57
2023-01-23T11:59:06.662Z,78.63
2023-01-23T12:00:06.714Z,79.46
2023-01-23T12:01:06.606Z,80.36
2023-01-23T12:02:06.584Z,80.99
2023-01-23T12:03:06.587Z,79.53
2023-01-23T12:04:06.662Z,79.11
2023-01-23T12:05:07.200Z,78.59
2023-01-23T12:06:19.577Z,79.28
2023-01-23T12:07:06.804Z,78.66
2023-01-23T12:08:06.849Z,78.34
2023-01-23T12:09:10.212Z,79.08
2023-01-23T12:10:06.788Z,78.77
2023-01-23T12:11:06.857Z,78.24
2023-01-23T12:12:06.697Z,78.03
2023-01-23T12:13:06.509Z,78.28
2023-01-23T12:14:06.583Z,78.87
2023-01-23T12:15:06.442Z,78.69
2023-01-23T12:16:06.708Z,79.49
2023-01-23T12:17:06.414Z,78.56
2023-01-23T12:18:06.577Z,79.08
2023-01-23T12:19:06.531Z,78.87
2023-01-23T12:20:06.638Z,79.39
2023-01-23T12:21:06.582Z,79.28
2023-01-23T12:22:06.764Z,79.60
2023-01-23T12:23:07.171Z,79.60
2023-01-23T12:24:06.494Z,79.80
2023-01-23T12:25:07.161Z,79.39
2023-01-23T12:26:07.062Z,79.98
2023-01-23T12:27:07.310Z,79.04
2023-01-23T12:28:06.487Z,78.73
2023-01-23T12:29:06.836Z,78.52
2023-01-23T12:30:06.591Z,77.96
2023-01-23T12:31:06.681Z,77.37
2023-01-23T12:32:06.308Z,77.48
2023-01-23T12:33:06.231Z,77.89
2023-01-23T12:34:06.534Z,77.89
2023-01-23T12:35:06.295Z,78.10
2023-01-23T12:36:06.118Z,77.89
2023-01-23T12:37:14.112Z,77.89
2023-01-23T12:38:06.119Z,77.79
2023-01-23T12:39:06.280Z,78.00
2023-01-23T12:40:07.777Z,78.42
2023-01-23T12:41:06.089Z,78.94
2023-01-23T12:42:06.061Z,78.52
2023-01-23T12:43:06.041Z,78.34
2023-01-23T12:44:06.085Z,79.18
2023-01-23T12:45:06.075Z,78.97
2023-01-23T12:46:06.197Z,79.18
2023-01-23T12:47:06.097Z,78.97
2023-01-23T12:48:06.097Z,78.97
2023-01-23T12:49:06.173Z,78.97
2023-01-23T12:50:07.207Z,78.77
2023-01-23T12:51:06.006Z,79.60
2023-01-23T12:52:06.230Z,79.08